Time;durP1;ratioP1;P1;durP2;ratioP2;P2;SDS_P1;SDS_P2;PMS_P1;PMS_P2;Temp;Humidity;BMP_temperature;BMP_pressure;BME280_temperature;BME280_humidity;BME280_pressure;Samples;Min_cycle;Max_cycle;Signal;HPM_P1;HPM_P2
2022/05/20 00:00:22;;;;;;;1.50;1.40;;;;;;;18.30;74.61;99400.56;4971480;28;40932;-76
2022/05/20 00:02:50;;;;;;;1.53;1.43;;;;;;;18.27;74.77;99414.25;4955704;28;41114;-76
2022/05/20 00:05:18;;;;;;;3.03;1.00;;;;;;;18.25;74.72;99393.91;4955318;28;41844;-76
2022/05/20 00:07:46;;;;;;;2.17;1.33;;;;;;;18.18;75.55;99368.59;4955455;28;42309;-76
2022/05/20 00:10:16;;;;;;;2.43;1.73;;;;;;;18.18;76.12;99363.22;4955521;28;39941;-77
2022/05/20 00:12:44;;;;;;;2.53;1.77;;;;;;;18.18;77.28;99366.75;4973028;28;42959;-76
2022/05/20 00:15:16;;;;;;;1.70;1.60;;;;;;;18.16;76.59;99363.41;4971151;28;41902;-76
2022/05/20 00:17:44;;;;;;;1.63;1.47;;;;;;;18.13;76.37;99358.28;4968997;28;42962;-76
2022/05/20 00:20:14;;;;;;;1.30;1.20;;;;;;;18.12;75.90;99361.94;4972736;28;39945;-76
2022/05/20 00:22:41;;;;;;;1.60;1.50;;;;;;;18.07;75.81;99366.84;4955432;28;40786;-76
2022/05/20 00:27:56;;;;;;;1.40;1.30;;;;;;;18.01;75.47;99370.06;4972642;28;42906;-75
2022/05/20 00:30:26;;;;;;;1.20;1.10;;;;;;;17.96;75.30;99356.19;4973502;28;40088;-75
2022/05/20 00:32:54;;;;;;;1.40;1.30;;;;;;;17.85;75.43;99340.16;4972490;28;42460;-76
2022/05/20 00:35:23;;;;;;;1.73;1.27;;;;;;;17.92;75.26;99357.44;4955973;28;42102;-75
2022/05/20 00:37:51;;;;;;;1.80;1.40;;;;;;;17.83;75.45;99339.44;4972417;28;42279;-75
2022/05/20 00:40:23;;;;;;;1.80;1.70;;;;;;;17.88;75.61;99358.66;4972309;28;40774;-75
2022/05/20 00:42:51;;;;;;;1.90;1.50;;;;;;;17.85;75.32;99358.91;4956352;28;41562;-75
2022/05/20 00:45:20;;;;;;;2.37;1.47;;;;;;;17.82;75.44;99359.16;4971973;28;42127;-76
2022/05/20 00:47:50;;;;;;;2.67;1.47;;;;;;;17.79;75.44;99359.44;4955859;28;41276;-76
2022/05/20 00:50:19;;;;;;;2.40;1.20;;;;;;;17.66;75.59;99337.34;4955819;28;40744;-76
2022/05/20 00:52:51;;;;;;;1.10;1.00;;;;;;;17.74;75.37;99350.94;4972121;28;41919;-75
2022/05/20 00:55:22;;;;;;;1.40;1.30;;;;;;;17.71;75.08;99353.88;4971156;28;42887;-76
2022/05/20 00:57:55;;;;;;;1.30;1.20;;;;;;;17.65;75.27;99346.38;4972667;28;41931;-76
2022/05/20 01:00:25;;;;;;;1.40;1.30;;;;;;;17.62;75.26;99341.22;4961902;28;38168;-76
2022/05/20 01:02:57;;;;;;;1.20;1.17;;;;;;;17.62;75.34;99347.44;4980547;28;41746;-76
2022/05/20 01:05:31;;;;;;;1.50;1.40;;;;;;;17.58;75.18;99341.47;4977913;28;41523;-76
2022/05/20 01:08:00;;;;;;;1.20;1.10;;;;;;;17.55;75.20;99347.09;4979179;28;42293;-76
2022/05/20 01:10:27;;;;;;;1.53;1.20;;;;;;;17.52;75.25;99341.16;4978870;28;40073;-76
2022/05/20 01:12:57;;;;;;;1.07;0.97;;;;;;;17.51;75.06;99344.81;4962841;28;41961;-76
2022/05/20 01:15:26;;;;;;;1.60;1.23;;;;;;;17.46;75.17;99331.78;4979705;28;43855;-76
2022/05/20 01:17:57;;;;;;;1.57;1.47;;;;;;;17.47;75.88;99335.31;4958040;28;42119;-76
2022/05/20 01:20:28;;;;;;;1.57;1.47;;;;;;;17.43;75.26;99337.38;4969699;28;40188;-77
2022/05/20 01:23:08;;;;;;;1.03;1.03;;;;;;;17.41;75.71;99333.16;4972086;28;41281;-76
2022/05/20 01:25:37;;;;;;;1.63;1.30;;;;;;;17.38;75.42;99339.63;4969767;28;42938;-76
2022/05/20 01:28:05;;;;;;;1.30;1.20;;;;;;;17.36;75.62;99343.38;4970648;28;41171;-76
2022/05/20 01:30:33;;;;;;;1.37;1.27;;;;;;;17.32;75.45;99345.47;4970263;28;38811;-76
2022/05/20 01:33:04;;;;;;;1.13;1.10;;;;;;;17.28;75.21;99336.00;4954359;28;41177;-77
2022/05/20 01:35:37;;;;;;;1.30;1.20;;;;;;;17.20;75.21;99331.25;4954236;28;42104;-76
2022/05/20 01:38:08;;;;;;;1.70;1.30;;;;;;;17.25;75.04;99344.28;4967469;28;42741;-77
2022/05/20 01:40:42;;;;;;;1.30;1.17;;;;;;;17.23;75.27;99335.50;4954181;28;40916;-77
2022/05/20 01:43:17;;;;;;;2.93;1.73;;;;;;;17.09;75.42;99319.72;4954233;28;42249;-76
2022/05/20 01:45:54;;;;;;;1.50;1.40;;;;;;;17.18;75.26;99340.41;4968785;28;42943;-77
2022/05/20 01:48:28;;;;;;;1.10;1.00;;;;;;;17.16;75.29;99343.22;4970840;28;40989;-77
2022/05/20 01:50:57;;;;;;;1.50;1.00;;;;;;;17.03;74.87;99322.94;4970377;28;40920;-76
2022/05/20 01:53:34;;;;;;;1.43;1.20;;;;;;;17.14;75.07;99346.97;4970388;28;41671;-76
2022/05/20 01:56:09;;;;;;;2.03;1.10;;;;;;;17.04;74.97;99335.34;4969093;28;43726;-76
2022/05/20 01:58:45;;;;;;;1.33;1.23;;;;;;;17.09;74.83;99339.31;4954227;28;41146;-77
2022/05/20 02:01:21;;;;;;;1.67;1.27;;;;;;;17.09;75.29;99338.47;4953844;28;38890;-75
2022/05/20 02:03:54;;;;;;;1.40;1.20;;;;;;;17.08;75.43;99342.13;4953957;28;40575;-76
2022/05/20 02:06:25;;;;;;;1.13;1.03;;;;;;;17.09;75.26;99330.44;4970988;28;43472;-75
2022/05/20 02:08:59;;;;;;;1.30;1.20;;;;;;;17.11;75.20;99331.16;4955282;28;42374;-75
2022/05/20 02:11:32;;;;;;;1.43;1.33;;;;;;;17.12;75.18;99343.56;4971032;28;39116;-75
2022/05/20 02:14:06;;;;;;;1.53;1.37;;;;;;;17.13;74.85;99345.28;4968143;28;42456;-76
2022/05/20 02:16:38;;;;;;;1.20;1.10;;;;;;;17.15;75.37;99346.88;4970712;28;43713;-75
2022/05/20 02:19:12;;;;;;;1.83;1.40;;;;;;;17.19;75.25;99350.97;4971692;28;42458;-76
2022/05/20 02:21:43;;;;;;;1.40;1.30;;;;;;;17.22;75.46;99355.22;4974411;28;39909;-75
2022/05/20 02:24:16;;;;;;;1.20;1.20;;;;;;;17.27;75.41;99358.38;4974678;28;41119;-75
2022/05/20 02:26:50;;;;;;;2.37;1.63;;;;;;;17.32;75.39;99366.03;4957719;28;41769;-76
2022/05/20 02:29:21;;;;;;;3.00;1.40;;;;;;;17.24;75.36;99347.94;4956745;28;41689;-77
2022/05/20 02:31:54;;;;;;;1.40;1.30;;;;;;;17.38;75.43;99371.75;4957003;28;40935;-76
2022/05/20 02:34:23;;;;;;;3.03;1.50;;;;;;;17.42;75.86;99367.00;4973398;28;41000;-76
2022/05/20 02:36:50;;;;;;;1.30;1.20;;;;;;;17.42;75.66;99367.84;4956799;28;42040;-76
2022/05/20 02:39:21;;;;;;;2.60;1.40;;;;;;;17.44;75.74;99365.00;4973092;28;42296;-76
2022/05/20 02:41:50;;;;;;;1.53;1.43;;;;;;;17.46;75.91;99371.94;4973346;28;39725;-76
2022/05/20 02:44:18;;;;;;;3.03;1.80;;;;;;;17.48;76.06;99372.69;4974331;28;41700;-76
2022/05/20 02:46:47;;;;;;;2.57;2.00;;;;;;;17.49;77.27;99369.03;4972643;28;41975;-77
2022/05/20 02:49:15;;;;;;;2.43;2.10;;;;;;;17.49;76.84;99379.75;4972985;28;42368;-76
2022/05/20 02:51:43;;;;;;;1.70;1.60;;;;;;;17.48;77.00;99385.22;4973817;28;40064;-76
2022/05/20 02:54:10;;;;;;;1.70;1.60;;;;;;;17.54;76.98;99398.97;4956715;28;40837;-76
2022/05/20 02:56:40;;;;;;;3.43;1.70;;;;;;;17.55;77.76;99395.31;4972451;28;42941;-76
2022/05/20 03:04:37;;;;;;;1.50;1.40;;;;;;;17.48;76.95;99404.81;4956646;28;41741;-76
2022/05/20 03:07:05;;;;;;;3.03;1.70;;;;;;;17.51;77.13;99406.41;4972761;28;43780;-76
2022/05/20 03:09:33;;;;;;;1.93;1.60;;;;;;;17.53;76.95;99413.34;4956458;28;41344;-76
2022/05/20 03:12:02;;;;;;;1.47;1.37;;;;;;;17.55;76.89;99416.75;4956829;28;38376;-75
2022/05/20 03:14:30;;;;;;;1.70;1.50;;;;;;;17.55;76.65;99416.75;4957112;28;40663;-75
2022/05/20 03:16:59;;;;;;;1.73;1.63;;;;;;;17.52;77.35;99417.00;4973519;28;42534;-75
2022/05/20 03:19:30;;;;;;;2.10;1.70;;;;;;;17.49;77.47;99414.56;4974432;28;42369;-75
2022/05/20 03:21:58;;;;;;;2.30;2.00;;;;;;;17.48;77.34;99415.53;4957740;28;39994;-75
2022/05/20 03:24:26;;;;;;;1.97;1.77;;;;;;;17.49;78.02;99406.53;4973486;28;41797;-74
2022/05/20 03:26:54;;;;;;;2.43;1.70;;;;;;;17.43;77.85;99390.94;4973182;28;45985;-74
2022/05/20 03:29:23;;;;;;;1.90;1.63;;;;;;;17.50;77.61;99408.22;4956536;28;42180;-74
2022/05/20 03:31:51;;;;;;;2.17;1.93;;;;;;;17.49;78.53;99395.81;4973224;28;39957;-74
2022/05/20 03:34:20;;;;;;;2.37;2.00;;;;;;;17.48;78.41;99387.88;4973528;28;42047;-74
2022/05/20 03:36:50;;;;;;;2.67;2.47;;;;;;;17.48;80.40;99370.00;4972583;28;42464;-74
2022/05/20 03:39:20;;;;;;;3.80;3.27;;;;;;;17.45;80.24;99364.88;4957103;28;41503;-74
2022/05/20 03:41:48;;;;;;;3.27;2.53;;;;;;;17.47;80.26;99376.34;4970881;28;40059;-75
2022/05/20 03:44:18;;;;;;;3.47;3.13;;;;;;;17.51;80.02;99375.13;4955720;28;41718;-74
2022/05/20 03:46:50;;;;;;;6.43;2.77;;;;;;;17.54;80.39;99355.25;4971869;28;43374;-74
2022/05/20 03:49:20;;;;;;;2.83;2.40;;;;;;;17.57;80.96;99345.13;4969318;28;43205;-74
2022/05/20 03:51:49;;;;;;;3.40;2.90;;;;;;;17.57;83.62;99286.19;4971920;28;39950;-75
2022/05/20 03:54:20;;;;;;;3.47;2.07;;;;;;;17.40;84.79;99289.47;4972023;28;41324;-74
2022/05/20 03:56:48;;;;;;;3.40;2.57;;;;;;;17.46;84.23;99338.97;4971503;28;41829;-74
2022/05/20 03:59:16;;;;;;;3.13;2.43;;;;;;;17.50;83.23;99319.00;4971831;28;42208;-74
2022/05/20 04:02:00;;;;;;;4.50;3.20;;;;;;;17.51;83.89;99294.78;4971562;28;40207;-74
2022/05/20 04:04:33;;;;;;;5.10;3.33;;;;;;;17.54;83.47;99297.19;4970337;28;42677;-75
2022/05/20 04:07:02;;;;;;;3.97;3.30;;;;;;;17.57;83.82;99307.63;4972081;28;41694;-74
2022/05/20 04:09:30;;;;;;;4.00;3.53;;;;;;;17.60;83.60;99310.06;4971407;28;40909;-74
2022/05/20 04:12:00;;;;;;;3.97;3.20;;;;;;;17.63;83.48;99300.06;4973021;28;41106;-74
2022/05/20 04:14:29;;;;;;;4.43;2.60;;;;;;;17.67;83.00;99309.59;4973144;28;41289;-75
2022/05/20 04:16:57;;;;;;;3.37;2.87;;;;;;;17.71;82.68;99313.69;4955234;28;41875;-74
2022/05/20 04:19:25;;;;;;;2.50;2.30;;;;;;;17.71;82.50;99322.56;4971739;28;41154;-75
2022/05/20 04:21:57;;;;;;;4.83;2.77;;;;;;;17.79;82.38;99341.56;4955556;28;39618;-74
2022/05/20 04:24:25;;;;;;;5.00;3.20;;;;;;;17.81;83.00;99341.41;4971993;28;40638;-75
2022/05/20 04:26:53;;;;;;;5.07;3.70;;;;;;;17.82;83.48;99348.44;4973440;28;43737;-74
2022/05/20 04:29:21;;;;;;;4.03;3.63;;;;;;;17.83;83.26;99355.50;4956464;28;42192;-75
2022/05/20 04:31:51;;;;;;;3.10;2.80;;;;;;;17.89;83.45;99355.00;4956344;28;39076;-73
2022/05/20 04:34:20;;;;;;;3.80;3.43;;;;;;;17.94;84.40;99347.41;4972280;28;42702;-74
2022/05/20 04:36:48;;;;;;;5.63;3.67;;;;;;;17.99;83.34;99352.41;4971915;28;42546;-73
2022/05/20 04:39:17;;;;;;;4.13;2.83;;;;;;;18.05;83.26;99355.38;4972500;28;42970;-74
2022/05/20 04:47:22;;;;;;;3.87;3.20;;;;;;;18.21;83.84;99357.63;4956290;28;43129;-74
2022/05/20 04:49:50;;;;;;;4.13;3.70;;;;;;;18.27;82.89;99368.69;4956002;28;42643;-74
2022/05/20 04:52:18;;;;;;;3.70;3.40;;;;;;;18.34;82.98;99370.81;4955842;28;38807;-74
2022/05/20 04:54:50;;;;;;;2.60;2.40;;;;;;;18.43;82.47;99372.69;4971735;28;41583;-75
2022/05/20 04:57:27;;;;;;;3.03;2.73;;;;;;;18.53;82.19;99377.16;4970610;28;41583;-74
2022/05/20 04:59:59;;;;;;;2.47;2.20;;;;;;;18.59;81.71;99362.38;4970475;28;42145;-74
2022/05/20 05:02:27;;;;;;;3.43;2.70;;;;;;;18.67;81.07;99349.97;4955324;28;40835;-74
2022/05/20 05:04:56;;;;;;;2.50;2.30;;;;;;;18.69;81.68;99352.53;4954740;28;40709;-74
2022/05/20 05:07:23;;;;;;;3.27;2.87;;;;;;;18.67;81.91;99357.16;4971681;28;43180;-74
2022/05/20 05:09:53;;;;;;;3.43;2.47;;;;;;;18.81;81.66;99370.22;4955536;28;41984;-74
2022/05/20 05:12:22;;;;;;;3.73;2.90;;;;;;;18.86;81.66;99368.00;4955679;28;40126;-74
2022/05/20 05:14:52;;;;;;;3.30;2.63;;;;;;;18.94;80.95;99378.91;4971547;28;41115;-74
2022/05/20 05:18:09;;;;;;;4.30;2.33;;;;;;;19.04;80.90;99378.91;4971539;28;42956;-74
2022/05/20 05:20:14;;;;;;;2.57;2.37;;;;;;;19.17;80.56;99374.16;4955719;28;41492;-75
2022/05/20 05:22:42;;;;;;;3.13;2.83;;;;;;;19.26;80.72;99372.50;4969975;28;40062;-74
2022/05/20 05:25:14;;;;;;;3.53;2.80;;;;;;;19.43;80.74;99377.19;4970782;28;41748;-74
2022/05/20 05:27:42;;;;;;;3.57;2.67;;;;;;;19.63;80.32;99394.22;4971437;28;41832;-75
2022/05/20 05:30:13;;;;;;;2.90;2.70;;;;;;;19.81;79.91;99380.91;4972413;28;42360;-75
2022/05/20 05:32:41;;;;;;;3.20;2.90;;;;;;;19.96;79.24;99374.13;4968237;28;40112;-74
2022/05/20 05:35:12;;;;;;;2.87;2.67;;;;;;;20.08;79.02;99372.97;4954402;28;40760;-74
2022/05/20 05:37:41;;;;;;;4.43;2.83;;;;;;;20.13;78.87;99367.19;4954188;28;42863;-75
2022/05/20 05:40:19;;;;;;;5.63;3.60;;;;;;;20.23;78.52;99355.41;4970439;28;42693;-75
2022/05/20 05:42:48;;;;;;;3.13;2.80;;;;;;;20.27;78.62;99348.75;4970704;28;38574;-76
2022/05/20 05:45:19;;;;;;;5.30;3.20;;;;;;;20.41;78.16;99359.06;4954309;28;40677;-75
2022/05/20 05:47:52;;;;;;;4.97;3.50;;;;;;;20.43;77.98;99334.72;4954677;28;41732;-76
2022/05/20 05:50:20;;;;;;;4.17;2.53;;;;;;;20.72;77.46;99348.06;4948143;28;42257;-78
2022/05/20 05:52:48;;;;;;;3.20;2.73;;;;;;;20.84;77.23;99344.19;4970985;28;40917;-77
2022/05/20 05:55:17;;;;;;;3.93;3.47;;;;;;;20.94;76.91;99344.97;4979367;28;42585;-79
2022/05/20 05:57:44;;;;;;;4.37;3.20;;;;;;;21.07;76.57;99348.19;4973722;28;42753;-79
2022/05/20 06:00:14;;;;;;;3.77;3.37;;;;;;;21.16;76.44;99355.34;4989915;28;42722;-78
2022/05/20 06:02:41;;;;;;;3.60;3.30;;;;;;;21.22;76.12;99347.69;4973799;28;38690;-79
2022/05/20 06:05:09;;;;;;;4.03;3.43;;;;;;;21.26;75.94;99354.50;4990457;28;42762;-79
2022/05/20 06:07:37;;;;;;;2.90;2.70;;;;;;;21.29;76.10;99348.78;4990988;28;42734;-80
2022/05/20 06:10:05;;;;;;;5.53;4.20;;;;;;;21.34;75.91;99368.03;4973482;28;41461;-77
2022/05/20 06:12:35;;;;;;;4.20;3.77;;;;;;;21.32;75.80;99365.50;4989707;28;38875;-77
2022/05/20 06:15:05;;;;;;;4.70;3.33;;;;;;;21.29;75.50;99354.16;4972833;28;40358;-80
2022/05/20 06:17:33;;;;;;;3.67;3.27;;;;;;;21.32;75.68;99364.66;4990101;28;41714;-78
2022/05/20 06:20:01;;;;;;;3.87;3.57;;;;;;;21.30;76.10;99355.88;4989982;28;42182;-78
2022/05/20 06:22:29;;;;;;;3.53;3.07;;;;;;;21.39;75.81;99371.09;4974355;28;38727;-76
2022/05/20 06:24:57;;;;;;;3.37;3.07;;;;;;;21.49;75.54;99377.31;4990734;28;42032;-79
2022/05/20 06:27:24;;;;;;;3.33;2.73;;;;;;;21.54;75.30;99372.28;4964187;28;43007;-79
2022/05/20 06:29:54;;;;;;;3.10;2.83;;;;;;;21.75;75.36;99389.03;4970832;28;43217;-76
2022/05/20 06:32:21;;;;;;;4.97;4.43;;;;;;;21.62;75.01;99361.59;4971914;28;40801;-76
2022/05/20 06:40:22;;;;;;;5.20;4.57;;;;;;;21.75;74.65;99421.38;4985976;28;42335;-76
2022/05/20 06:42:50;;;;;;;4.33;3.93;;;;;;;21.90;74.83;99392.00;4973969;28;39649;-79
2022/05/20 06:45:19;;;;;;;4.23;3.83;;;;;;;22.01;74.10;99354.03;4989493;28;41838;-79
2022/05/20 06:47:47;;;;;;;4.40;3.87;;;;;;;22.30;73.61;99383.44;4971989;28;42912;-74
2022/05/20 06:50:15;;;;;;;3.73;3.40;;;;;;;22.55;72.96;99366.41;4988691;28;42086;-76
2022/05/20 06:52:42;;;;;;;3.80;3.50;;;;;;;22.78;72.42;99355.09;4990528;28;40195;-77
2022/05/20 06:55:10;;;;;;;3.93;3.57;;;;;;;22.97;71.43;99362.97;4988589;28;42719;-76
2022/05/20 06:57:40;;;;;;;3.20;2.90;;;;;;;23.28;70.75;99377.59;4989164;28;43016;-76
2022/05/20 07:00:10;;;;;;;4.17;3.40;;;;;;;23.58;69.64;99376.19;4988446;28;42823;-77
2022/05/20 07:02:39;;;;;;;4.50;3.90;;;;;;;23.89;68.91;99379.09;4990245;28;40744;-76
2022/05/20 07:05:09;;;;;;;5.10;3.43;;;;;;;23.82;67.91;99375.38;4991615;28;42816;-77
2022/05/20 07:07:37;;;;;;;4.00;3.60;;;;;;;23.83;67.67;99371.66;4993145;28;43349;-77
2022/05/20 07:10:06;;;;;;;5.30;3.47;;;;;;;23.93;67.15;99380.44;4985285;28;43011;-78
2022/05/20 07:12:34;;;;;;;3.50;3.20;;;;;;;23.84;66.77;99403.09;4957341;28;39283;-76
2022/05/20 07:15:01;;;;;;;3.40;3.13;;;;;;;23.72;66.80;99371.13;4978562;28;40693;-76
2022/05/20 07:17:29;;;;;;;7.23;3.10;;;;;;;23.81;66.58;99381.78;4992643;28;43002;-76
2022/05/20 07:19:58;;;;;;;4.53;3.10;;;;;;;23.78;66.52;99381.28;4993345;28;42939;-76
2022/05/20 07:22:26;;;;;;;3.63;3.07;;;;;;;23.87;66.67;99386.53;4992833;28;40660;-77
2022/05/20 07:24:55;;;;;;;3.57;3.27;;;;;;;24.10;65.68;99386.72;4975642;28;41580;-78
2022/05/20 07:27:23;;;;;;;3.37;3.17;;;;;;;24.34;64.26;99385.91;4992813;28;41870;-78
2022/05/20 07:29:50;;;;;;;3.40;3.10;;;;;;;24.83;63.65;99393.94;4975482;28;41275;-77
2022/05/20 07:32:18;;;;;;;3.80;3.50;;;;;;;25.12;62.64;99388.75;4992638;28;39786;-77
2022/05/20 07:34:46;;;;;;;4.17;3.77;;;;;;;25.32;61.08;99403.59;4987061;28;41544;-77
2022/05/20 07:37:15;;;;;;;4.50;3.43;;;;;;;25.32;61.08;99395.47;4955087;28;42903;-78
2022/05/20 07:39:43;;;;;;;4.20;3.80;;;;;;;25.18;60.69;99396.22;4976359;28;42133;-77
2022/05/20 07:42:11;;;;;;;4.20;3.80;;;;;;;25.09;61.99;99394.56;4992873;28;40119;-75
2022/05/20 07:44:38;;;;;;;3.77;3.40;;;;;;;25.05;61.54;99394.06;4987724;28;42737;-77
2022/05/20 07:47:06;;;;;;;4.60;4.10;;;;;;;24.90;61.29;99384.06;4971721;28;43103;-77
2022/05/20 07:49:34;;;;;;;4.53;4.20;;;;;;;24.84;62.03;99390.22;4958060;28;43022;-79
2022/05/20 07:52:03;;;;;;;4.50;4.10;;;;;;;24.91;62.19;99378.50;4991610;28;38917;-75
2022/05/20 07:54:39;;;;;;;3.97;3.67;;;;;;;25.28;62.12;99387.84;4972099;28;41492;-76
2022/05/20 07:57:13;;;;;;;5.07;4.07;;;;;;;25.97;59.69;99395.06;4955865;28;42904;-77
2022/05/20 07:59:45;;;;;;;4.03;3.70;;;;;;;26.73;59.29;99385.94;4972223;28;42256;-79
2022/05/20 08:02:15;;;;;;;3.63;3.33;;;;;;;27.58;56.93;99395.47;4989788;28;41063;-77
2022/05/20 08:04:56;;;;;;;3.87;3.57;;;;;;;28.21;54.55;99391.97;4990385;28;41825;-77
2022/05/20 08:07:27;;;;;;;4.77;4.27;;;;;;;28.25;52.27;99406.91;4990349;28;42441;-77
2022/05/20 08:09:56;;;;;;;5.43;3.43;;;;;;;28.25;52.75;99387.81;4985910;28;41795;-78
2022/05/20 08:12:24;;;;;;;5.30;4.20;;;;;;;28.77;52.50;99371.03;4972580;28;38300;-78
2022/05/20 08:14:52;;;;;;;5.30;3.60;;;;;;;29.40;50.41;99381.91;4960364;28;41566;-79
2022/05/20 08:17:22;;;;;;;3.80;3.40;;;;;;;29.92;49.28;99389.41;4993058;28;43542;-79
2022/05/20 08:19:51;;;;;;;3.37;3.17;;;;;;;30.55;48.47;99389.91;4990354;28;41240;-79
2022/05/20 08:22:22;;;;;;;3.80;3.50;;;;;;;31.13;47.48;99385.44;4974990;28;41223;-78
2022/05/20 08:24:52;;;;;;;4.00;3.70;;;;;;;31.61;45.33;99406.91;4988783;28;42803;-79
2022/05/20 08:27:22;;;;;;;3.83;3.53;;;;;;;31.80;45.53;99402.41;4987918;28;43098;-77
2022/05/20 08:29:50;;;;;;;3.80;3.50;;;;;;;31.86;44.88;99407.88;4990176;28;41702;-77
2022/05/20 08:32:18;;;;;;;5.30;4.80;;;;;;;32.19;42.99;99407.69;4991155;28;40961;-77
2022/05/20 08:34:46;;;;;;;4.10;3.70;;;;;;;32.95;42.79;99390.16;4974165;28;40897;-78
2022/05/20 08:37:16;;;;;;;3.83;3.00;;;;;;;34.03;41.20;99404.03;4990679;28;43716;-78
2022/05/20 08:39:44;;;;;;;4.80;2.93;;;;;;;35.06;40.13;99398.94;4991111;28;42131;-77
2022/05/20 08:42:15;;;;;;;3.13;2.93;;;;;;;36.10;37.14;99415.44;4990619;28;40899;-78
2022/05/20 08:44:45;;;;;;;3.07;2.87;;;;;;;36.94;35.71;99417.16;4973995;28;40536;-79
2022/05/20 08:47:22;;;;;;;3.60;3.30;;;;;;;37.53;34.61;99425.72;4991024;28;43373;-80
2022/05/20 08:49:53;;;;;;;3.42;2.67;;;;;;;37.76;34.28;99424.66;4974100;28;41252;-76
2022/05/20 08:52:21;;;;;;;3.73;3.43;;;;;;;37.53;35.30;99397.25;4990573;28;39496;-76
2022/05/20 08:54:48;;;;;;;3.07;2.70;;;;;;;36.65;35.44;99413.66;4973791;28;40855;-78
2022/05/20 08:57:23;;;;;;;3.87;2.87;;;;;;;35.84;36.12;99401.19;4991823;28;43704;-78
2022/05/20 08:59:52;;;;;;;3.40;3.10;;;;;;;35.16;36.85;99382.63;4988629;28;42780;-78
2022/05/20 09:02:21;;;;;;;3.00;2.80;;;;;;;34.70;37.62;99375.22;4990266;28;39022;-77
2022/05/20 09:04:49;;;;;;;2.90;2.57;;;;;;;34.38;38.77;99363.72;4989727;28;41905;-75
2022/05/20 09:07:19;;;;;;;3.47;3.17;;;;;;;34.23;39.82;99355.09;4990385;28;42811;-78
2022/05/20 09:09:50;;;;;;;3.20;2.90;;;;;;;34.07;38.64;99339.28;4974190;28;42920;-78
2022/05/20 09:12:33;;;;;;;4.33;3.00;;;;;;;33.91;39.79;99331.69;4992752;28;40258;-78
2022/05/20 09:17:52;;;;;;;2.93;2.73;;;;;;;33.50;40.53;99333.34;4974406;28;41741;-78
2022/05/20 09:20:23;;;;;;;3.23;2.93;;;;;;;33.28;38.68;99334.88;4981762;28;42666;-76
2022/05/20 09:22:57;;;;;;;3.20;2.90;;;;;;;33.27;40.34;99323.06;4972220;28;39645;-79
2022/05/20 09:25:27;;;;;;;4.07;2.60;;;;;;;33.28;41.48;99313.75;4976908;28;42458;-77
2022/05/20 09:28:13;;;;;;;4.37;3.47;;;;;;;33.16;40.13;99321.91;4988962;28;43626;-78
2022/05/20 09:30:48;;;;;;;3.27;2.97;;;;;;;33.08;40.43;99310.41;4988324;28;43188;-78
2022/05/20 09:33:20;;;;;;;5.00;3.10;;;;;;;33.06;40.29;99310.63;4990583;28;40030;-78
2022/05/20 09:35:54;;;;;;;5.27;3.63;;;;;;;33.10;40.91;99300.03;4989550;28;41833;-77
2022/05/20 09:38:34;;;;;;;3.83;3.40;;;;;;;33.13;39.41;99307.81;4989932;28;41914;-74
2022/05/20 09:41:11;;;;;;;3.70;3.40;;;;;;;33.37;38.69;99306.91;4989890;28;40678;-78
2022/05/20 09:43:40;;;;;;;4.70;3.23;;;;;;;33.68;38.83;99293.97;4973772;28;38984;-77
2022/05/20 09:46:29;;;;;;;4.17;3.73;;;;;;;34.45;38.22;99287.44;4989250;28;42210;-77
2022/05/20 09:49:03;;;;;;;3.93;3.63;;;;;;;35.47;36.80;99296.00;4973635;28;42856;-77
2022/05/20 09:51:36;;;;;;;3.63;3.43;;;;;;;36.34;34.78;99290.09;4973006;28;44292;-78
2022/05/20 09:54:14;;;;;;;3.60;3.30;;;;;;;36.45;34.44;99275.38;4973881;28;39929;-77
2022/05/20 09:56:45;;;;;;;4.77;3.90;;;;;;;36.19;35.65;99293.41;4990771;28;42758;-77
2022/05/20 09:59:22;;;;;;;4.57;3.37;;;;;;;35.74;36.10;99282.44;4973773;28;41905;-77
2022/05/20 10:01:59;;;;;;;3.70;3.40;;;;;;;35.24;37.40;99282.25;4989524;28;42375;-76
2022/05/20 10:04:37;;;;;;;3.97;3.67;;;;;;;35.02;36.90;99271.09;4973156;28;40932;-78
2022/05/20 10:07:13;;;;;;;3.80;3.50;;;;;;;35.27;36.82;99279.88;4986999;28;41629;-75
2022/05/20 10:09:48;;;;;;;3.83;3.50;;;;;;;35.97;35.81;99278.72;4989134;28;42805;-75
2022/05/20 10:12:25;;;;;;;3.83;3.53;;;;;;;36.79;35.27;99284.41;4987952;28;42952;-76
2022/05/20 10:14:58;;;;;;;3.97;3.17;;;;;;;37.95;32.54;99290.47;4973155;28;39878;-75
2022/05/20 10:17:48;;;;;;;4.00;3.60;;;;;;;38.82;31.37;99304.97;4987747;28;42253;-79
2022/05/20 10:20:21;;;;;;;6.82;4.32;;;;;;;39.31;30.53;99275.81;4987962;28;42801;-77
2022/05/20 10:22:57;;;;;;;3.30;3.10;;;;;;;40.11;29.25;99299.25;4987520;28;43267;-77
2022/05/20 10:25:31;;;;;;;12.18;3.83;;;;;;;40.32;29.12;99286.22;4989775;28;39307;-77
2022/05/20 10:28:05;;;;;;;4.07;3.78;;;;;;;40.00;29.93;99275.41;4988462;28;41498;-75
2022/05/20 10:33:27;;;;;;;4.15;3.10;;;;;;;39.52;30.31;99270.34;4970731;28;43293;-76
2022/05/20 10:36:10;;;;;;;4.05;3.63;;;;;;;39.99;29.82;99270.13;4983589;28;38823;-77
2022/05/20 10:38:59;;;;;;;4.00;3.60;;;;;;;40.54;29.48;99255.38;4988898;28;42698;-80
2022/05/20 10:41:44;;;;;;;5.00;3.35;;;;;;;40.24;30.25;99256.22;4993592;28;42780;-82
2022/05/20 10:50:29;;;;;;;4.13;3.75;;;;;;;38.93;31.97;99231.88;4920692;28;42059;-78
2022/05/20 10:53:15;;;;;;;3.90;3.50;;;;;;;39.08;31.23;99235.53;4933608;28;42643;-83
2022/05/20 10:56:02;;;;;;;4.60;4.20;;;;;;;39.01;30.82;99228.59;4967795;28;42391;-80
2022/05/20 10:58:44;;;;;;;4.00;3.70;;;;;;;39.28;30.31;99237.56;4992271;28;40604;-77
2022/05/20 11:01:19;;;;;;;3.65;3.35;;;;;;;39.49;30.27;99233.75;4992277;28;42809;-79
2022/05/20 11:04:10;;;;;;;4.43;3.97;;;;;;;39.73;29.61;99233.19;4990543;28;42727;-77
2022/05/20 11:07:03;;;;;;;3.67;3.38;;;;;;;39.72;30.63;99210.16;4992528;28;43282;-78
2022/05/20 11:09:37;;;;;;;3.85;3.55;;;;;;;39.29;30.32;99194.03;4976268;28;40443;-79
2022/05/20 11:12:06;;;;;;;3.88;3.58;;;;;;;38.84;31.34;99186.41;4990892;28;42163;-82
2022/05/20 11:15:09;;;;;;;3.78;3.47;;;;;;;38.37;32.17;99159.63;4992835;28;42668;-82
2022/05/20 11:17:57;;;;;;;5.28;3.72;;;;;;;37.72;30.48;99163.59;4994618;28;42581;-83
2022/05/20 11:20:51;;;;;;;4.33;3.90;;;;;;;37.17;32.16;99145.44;4990766;28;40689;-76
2022/05/20 11:23:37;;;;;;;4.77;3.90;;;;;;;36.74;32.02;99162.88;4991095;28;41731;-79
2022/05/20 11:26:28;;;;;;;4.20;3.87;;;;;;;36.72;32.75;99161.50;4990998;28;42781;-76
2022/05/20 11:29:22;;;;;;;4.20;3.80;;;;;;;37.01;33.01;99162.91;4977157;28;41830;-79
2022/05/20 11:31:55;;;;;;;5.23;4.80;;;;;;;37.30;33.70;99150.53;4937895;28;39379;-79
2022/05/20 11:34:51;;;;;;;4.03;3.70;;;;;;;37.74;33.56;99144.81;4952641;28;41789;-79
2022/05/20 11:37:31;;;;;;;3.60;3.40;;;;;;;38.04;32.38;99145.03;4991694;28;42681;-81
2022/05/20 11:40:32;;;;;;;4.23;3.23;;;;;;;38.33;31.07;99126.09;4991164;28;42525;-81
2022/05/20 11:43:15;;;;;;;3.80;3.60;;;;;;;39.24;31.47;99130.28;4989386;28;40102;-82
2022/05/20 11:45:52;;;;;;;3.90;3.58;;;;;;;39.94;30.63;99112.81;4990862;28;42077;-79
2022/05/20 11:48:37;;;;;;;3.80;3.50;;;;;;;40.85;28.83;99134.72;4990029;28;42726;-81
2022/05/20 11:51:43;;;;;;;3.53;3.10;;;;;;;42.14;28.47;99105.56;4959638;28;42248;-82
2022/05/20 11:54:18;;;;;;;4.47;3.70;;;;;;;43.42;25.34;99136.97;4968101;28;40873;-79
2022/05/20 11:56:50;;;;;;;3.65;3.35;;;;;;;44.21;23.81;99126.66;4953676;28;41491;-79
2022/05/20 11:59:21;;;;;;;6.10;3.40;;;;;;;45.04;23.80;99124.59;4949795;28;42723;-80
2022/05/20 12:01:53;;;;;;;5.20;3.58;;;;;;;45.94;23.14;99122.66;4990705;28;44149;-77
2022/05/20 12:04:23;;;;;;;3.20;2.90;;;;;;;46.56;23.08;99100.13;4988279;28;39964;-74
2022/05/20 12:06:54;;;;;;;3.38;3.08;;;;;;;47.27;21.01;99103.50;4991552;28;41935;-79
2022/05/20 12:09:38;;;;;;;3.17;2.92;;;;;;;47.42;20.78;99095.44;4988822;28;42903;-80
2022/05/20 12:12:24;;;;;;;3.20;2.97;;;;;;;47.51;20.71;99078.56;4988564;28;42214;-77
2022/05/20 12:15:32;;;;;;;3.03;2.70;;;;;;;47.97;21.36;99054.50;4973937;28;38988;-75
2022/05/20 12:24:13;;;;;;;3.05;2.85;;;;;;;49.27;17.88;99036.38;4974351;28;41159;-76
2022/05/20 12:26:49;;;;;;;3.13;2.50;;;;;;;49.57;16.17;99016.53;4991223;28;41092;-78
2022/05/20 12:29:47;;;;;;;3.15;2.30;;;;;;;49.94;16.79;98992.88;4988676;28;41652;-79
2022/05/20 12:32:45;;;;;;;3.95;2.22;;;;;;;50.18;17.00;98992.03;4975837;28;41862;-82
2022/05/20 12:35:20;;;;;;;3.72;2.97;;;;;;;49.53;16.26;99010.78;4990974;28;42431;-80